Tiempo atmosférico en la estación meteorológica de San Andrés y Sauces, Santa Cruz de Tenerife (362 m.)



Fecha
DESCASC
Temp. máxima en grados centígrados (hora)
DESCASC
Temp. mínima en grados centígrados (hora)
DESCASC
Temp. media en grados centígrados
DESCASC
Racha de viento máxima en m/sg (hora)
DESCASC
Velocidad máxima media en intervalos de 10 minutos(hora)
DESCASC
Precipitaciones diarias en mm
DESCASC
Precipitaciones de 00:00 a 06:00 en mm
DESCASC
Precipitaciones de 06:00 a 12:00 en mm
DESCASC
Precipitaciones de 12:00 a 18:00 en mm
DESCASC
Precipitaciones de 18:00 a 24:00 en mm
DESCASC
14-12-2019 18.3 (12:50) 13.6 (06:30) 15.9 6.39 (02:40) 4.72 (05:20) 6 1.6 0.4 0 4
13-12-2019 16.6 (13:20) 14.3 (06:00) 15.5 10 (10:20) 5.83 (10:10) 0.4 0 0 0 0.4
12-12-2019 17.9 (13:30) 14.5 (21:10) 16.2 10.83 (15:00) 6.11 (16:10) 3 0 1.6 1.4 0
11-12-2019 17.3 (12:50) 15 (00:00) 16.1 9.44 (14:20) 6.11 (14:30) 0.2 0 0.2 0 0
10-12-2019 19.8 (13:10) 13.9 (00:00) 16.8 8.89 (03:00) 5 (05:10) 2 0 0 0 2
09-12-2019 18.8 (13:20) 13.9 (23:59) 16.3 7.78 (13:30) 5 (02:40) 0 0 0 0 0
08-12-2019 18 (10:50) 14.7 (00:00) 16.3 6.94 (13:50) 4.44 (05:40) 0 0 0 0 0
07-12-2019 17.5 (09:50) 15.1 (00:00) 16.3 8.61 (11:30) 4.72 (11:30) 0 0 0 0 0
06-12-2019 17.4 (14:00) 14.1 (00:00) 15.8 12.78 (06:20) 7.22 (07:10) 2 0.6 0.8 0 0.6
05-12-2019 16.4 (10:20) 13 (00:00) 14.7 16.11 (04:10) 9.17 (09:30) 11 0.6 5.2 4.8 0.4
04-12-2019 20.1 (14:30) 14.5 (00:00) 17.3 15 (22:50) 8.61 (22:00) 8.8 0 0.2 0 8.6
03-12-2019 17.7 (11:00) 14.2 (00:00) 16 10 (02:40) 6.39 (03:10) 1.2 1.2 0 0 0
02-12-2019 19.3 (13:40) 14.6 (00:00) 16.9 11.67 (12:10) 7.22 (12:10) 3.6 0 0.2 0 3.4
01-12-2019 20.4 (15:30) 15 (00:00) 17.7 5.83 (09:10) 4.17 (03:40) 0 0 0 0 0
30-11-2019 20.8 (10:50) 15.5 (00:00) 18.1 6.11 (14:30) 3.89 (23:59) 0 0 0 0 0
29-11-2019 21.6 (14:40) 15.5 (00:00) 18.6 6.39 (08:40) 3.89 (07:50) 0 0 0 0 0
28-11-2019 18.8 (15:30) 16.1 (03:50) 17.4 7.22 (08:50) 4.17 (08:40) 0 0 0 0 0
27-11-2019 18.6 (13:30) 15.7 (00:00) 17.2 6.67 (07:40) 4.44 (23:10) 0 0 0 0 0
26-11-2019 18.1 (10:30) 15.6 (00:00) 16.9 6.94 (00:30) 4.72 (00:30) 4.8 0 0 3.2 1.6
25-11-2019 19.7 (13:50) 14.8 (03:40) 17.3 7.78 (22:50) 5 (04:20) 0 0 0 0 0
24-11-2019 19.9 (12:30) 15.7 (00:00) 17.8 7.78 (20:10) 5.28 (19:50) 0.2 0 0 0.2 0
23-11-2019 21.4 (11:00) 16.7 (00:00) 19.1 8.61 (06:30) 5 (05:50) 0.2 0.2 0 0 0
22-11-2019 23 (15:00) 15.6 (00:00) 19.3 9.17 (23:50) 5 (23:50) 0 0 0 0 0
21-11-2019 21.5 (14:40) 14.6 (00:00) 18.1 8.61 (21:10) 4.44 (21:10) 3.4 0 0 0 3.4
20-11-2019 20.5 (10:30) 14.3 (04:20) 17.4 9.44 (14:00) 5.28 (14:00) 0.8 0 0.4 0.4 0
19-11-2019 19.5 (13:10) 13.7 (00:00) 16.6 9.17 (11:30) 5.56 (10:30) 0 0 0 0 0
18-11-2019 17 (16:20) 13.9 (00:00) 15.4 8.33 (08:10) 5.56 (08:10) 6.6 4 1.8 0.4 0.4
17-11-2019 17.3 (12:30) 13.7 (00:00) 15.5 8.89 (15:00) 5.83 (13:30) 11.4 0.4 6.8 1.8 2.4
16-11-2019 18.5 (12:00) 14.1 (00:00) 16.3 9.72 (20:20) 5.28 (20:10) 3.4 1.2 0.6 0.6 1

Gráficas

Temp. máximas Temp. mínimas Temp. medias Precipitaciones Rachas de viento máximas Velocidades máximas media en intervalos de 10 minutos

Datos horarios

Fecha y hora oficial Temperatura (ºC) Velocidad del viento (km/h) Dirección del viento Racha (km/h) Dirección de racha Precipitación (mm) Presión (hPa) Tendencia (hPa) Humedad (%)
2019-12-15 22:00:00 -- -- -- -- -- -- -- -- --
2019-12-15 21:00:00 13.8 14 Sudoeste 18 Sudoeste 0 -- -- 85
2019-12-15 20:00:00 14.9 11 Sudoeste 17 Sudoeste 0 -- -- 87
2019-12-15 19:00:00 14.8 11 Sudoeste 15 Sudoeste 0 -- -- 90
2019-12-15 18:00:00 15.2 7 Sudoeste 12 Sudoeste 0 -- -- 91
2019-12-15 17:00:00 15.5 8 Sudoeste 17 Sudoeste 0 -- -- 90
2019-12-15 16:00:00 15.6 8 Oeste 17 Noroeste 0 -- -- 90
2019-12-15 15:00:00 15.8 4 Nordeste 19 Noroeste 0.4 -- -- 92
2019-12-15 14:00:00 15.7 10 Norte 17 Norte 1.6 -- -- 95
2019-12-15 13:00:00 16.3 12 Norte 22 Norte 0 -- -- 89
2019-12-15 12:00:00 17.5 5 Nordeste 13 Este 0 -- -- 80
2019-12-15 11:00:00 17.5 3 Sudeste 8 Nordeste 0 -- -- 79
2019-12-15 10:00:00 15.6 6 Sudoeste 11 Sudoeste 0 -- -- 85
2019-12-15 09:00:00 14.5 6 Sudoeste 16 Sudoeste 0 -- -- 87
2019-12-15 08:00:00 13.7 12 Sudoeste 16 Sudoeste 0 -- -- 88
2019-12-15 07:00:00 13.9 10 Sudoeste 15 Oeste 0 -- -- 87
2019-12-15 06:00:00 13.9 6 Oeste 10 Oeste 0 -- -- 91
2019-12-15 05:00:00 14.4 7 Sudoeste 17 Oeste 0 -- -- 90
2019-12-15 04:00:00 14.8 13 Sudoeste 18 Sudoeste 0 -- -- 88
2019-12-15 03:00:00 14.6 10 Sudoeste 14 Oeste 0 -- -- 91
2019-12-15 02:00:00 14.8 12 Sudoeste 16 Sudoeste 0 -- -- 91
2019-12-15 01:00:00 14.8 14 Sudoeste 18 Sudoeste 1 -- -- 93
2019-12-15 00:00:00 14.6 6 Sudoeste 9 Sudoeste 0.2 -- -- 95
2019-12-14 23:00:00 14.6 4 Sudoeste 11 Sudoeste 0 -- -- 94
2019-12-14 22:00:00 14.8 5 Sudoeste 12 Sudoeste 0 -- -- 93
2019-12-14 21:00:00 14.9 7 Sudoeste 10 Sudoeste 0 -- -- 95
2019-12-14 20:00:00 15.2 3 Sudoeste 6 Noroeste 3.8 -- -- 95
2019-12-14 19:00:00 15.4 3 Noroeste 14 Este 0 -- -- 95
2019-12-14 18:00:00 16.2 4 Este 9 Este 0 -- -- 90
2019-12-14 17:00:00 16.7 0 Calma 9 Este 0 -- -- 87
2019-12-14 16:00:00 17.1 6 Este 12 Este 0 -- -- 85
2019-12-14 15:00:00 17.3 4 Sur 15 Este 0 -- -- 81
2019-12-14 14:00:00 17.6 10 Este 21 Este 0 -- -- 86
2019-12-14 13:00:00 18.1 15 Este 22 Este 0 -- -- 86
2019-12-14 12:00:00 16.3 6 Sudoeste 18 Este 0.2 -- -- 86
2019-12-14 11:00:00 15.6 14 Este 20 Este 0 -- -- 95
2019-12-14 10:00:00 15.2 4 Sudoeste 13 Sudoeste 0 -- -- 94
2019-12-14 09:00:00 14.2 10 Sudoeste 16 Sudoeste 0 -- -- 91
2019-12-14 08:00:00 13.9 14 Sudoeste 18 Sudoeste 0.2 -- -- 93
2019-12-14 07:00:00 13.9 7 Sudoeste 15 Sudoeste 0 -- -- 92
2019-12-14 06:00:00 13.7 11 Sudoeste 22 Sudoeste 0 -- -- 91
2019-12-14 05:00:00 13.9 12 Sudoeste 21 Sudoeste 0.4 -- -- 95
2019-12-14 04:00:00 14.1 9 Sudoeste 20 Sudoeste 0.4 -- -- 91
2019-12-14 03:00:00 14.5 8 Este 23 Sudoeste 0 -- -- 92
2019-12-14 02:00:00 14.3 14 Sudoeste 21 Sudoeste 0 -- -- 90
2019-12-14 01:00:00 14.1 10 Sur 20 Sudoeste 0.8 -- -- 95
2019-12-14 00:00:00 14.3 10 Sur 17 Sudoeste 0.2 -- -- 92
2019-12-13 23:00:00 14.9 10 Sudoeste 22 Sudoeste 0.2 -- -- 87
2019-12-13 22:00:00 15.4 10 Sudoeste 18 Sudoeste 0 -- -- 81
2019-12-13 21:00:00 15.4 7 Sur 24 Sudoeste 0 -- -- 73
2019-12-13 20:00:00 15.8 10 Sudoeste 28 Sudoeste 0 -- -- 72
2019-12-13 19:00:00 15.7 11 Sudoeste 22 Oeste 0 -- -- 69
2019-12-13 18:00:00 15.4 7 Sur 15 Sudeste 0 -- -- 78
2019-12-13 17:00:00 15.4 12 Sudoeste 30 Sudoeste 0 -- -- 78
2019-12-13 16:00:00 16 10 Sur 19 Sudeste 0 -- -- 72
2019-12-13 15:00:00 15.7 10 Sudeste 24 Sudeste 0 -- -- 79
2019-12-13 14:00:00 16.1 10 Sur 22 Este 0 -- -- 73
2019-12-13 13:00:00 16.2 11 Sudeste 27 Este 0 -- -- 72
2019-12-13 12:00:00 15.4 13 Sudoeste 33 Sudoeste 0 -- -- 72
2019-12-13 11:00:00 15.1 14 Sudeste 36 Sudoeste 0 -- -- 71
2019-12-13 10:00:00 14.9 16 Sudoeste 34 Sudoeste 0 -- -- 73
2019-12-13 09:00:00 14.4 11 Sur 22 Sudeste 0 -- -- 76
2019-12-13 08:00:00 14.4 12 Sudeste 35 Sudoeste 0 -- -- 79
2019-12-13 07:00:00 14.7 19 Sudoeste 35 Sudoeste 0 -- -- 71
2019-12-13 06:00:00 14.3 8 Sur 22 Este 0 -- -- 77
2019-12-13 05:00:00 14.4 8 Sur 28 Sur 0 -- -- 79
2019-12-13 04:00:00 14.6 15 Sudoeste 26 Sudoeste 0 -- -- 73
2019-12-13 03:00:00 14.7 14 Este 24 Este 0 -- -- 71
2019-12-13 02:00:00 14.8 12 Sudeste 32 Este 0 -- -- 69
2019-12-13 01:00:00 14.8 16 Este 31 Sudeste 0 -- -- 77
2019-12-13 00:00:00 14.8 10 Sur 27 Sudoeste 0 -- -- 75
2019-12-12 23:00:00 15.1 13 Sudoeste 39 Sudoeste 0 -- -- 70
2019-12-12 22:00:00 14.6 18 Este 32 Sudoeste 0 -- -- 74
2019-12-12 21:00:00 14.7 11 Sudeste 34 Este 0 -- -- 83
2019-12-12 20:00:00 14.9 19 Este 35 Este 0 -- -- 87
2019-12-12 19:00:00 15.2 11 Este 28 Este 0 -- -- 83
2019-12-12 18:00:00 15.2 14 Este 27 Nordeste 0 -- -- 89
2019-12-12 17:00:00 15.1 11 Este 35 Este 0 -- -- 92
2019-12-12 16:00:00 15.6 22 Este 35 Este 0 -- -- 95
2019-12-12 15:00:00 15.9 22 Este 39 Este 1 -- -- 96
2019-12-12 14:00:00 17.3 10 Sudeste 23 Sur 0.4 -- -- 89
2019-12-12 13:00:00 17 10 Sudeste 21 Sudeste 0 -- -- 88
2019-12-12 12:00:00 17.7 10 Sur 34 Oeste 0 -- -- 81
2019-12-12 11:00:00 17 10 Sur 27 Sudeste 0 -- -- 80
2019-12-12 10:00:00 16.5 14 Sudeste 29 Sudeste 0 -- -- 86
2019-12-12 09:00:00 15.7 9 Sur 24 Sudoeste 0.4 -- -- 89
2019-12-12 08:00:00 15.4 13 Sudoeste 22 Sudoeste 1.2 -- -- 89
2019-12-12 07:00:00 16.3 6 Sur 36 Sudoeste 0 -- -- 80
2019-12-12 06:00:00 16.1 21 Sudoeste 31 Sudoeste 0 -- -- 74
2019-12-12 05:00:00 15.7 10 Sudoeste 22 Sudoeste 0 -- -- 78
2019-12-12 04:00:00 15.3 9 Sudoeste 20 Sudoeste 0 -- -- 79
2019-12-12 03:00:00 15.2 8 Sudoeste 21 Sudoeste 0 -- -- 79
2019-12-12 02:00:00 15.4 8 Sur 21 Sur 0 -- -- 81
2019-12-12 01:00:00 15.2 14 Sudoeste 25 Sudoeste 0 -- -- 72
2019-12-12 00:00:00 15 13 Sudoeste 21 Sudoeste 0 -- -- 79
2019-12-11 23:00:00 15.6 10 Sudoeste 22 Sudoeste 0 -- -- 79
2019-12-11 22:00:00 15.6 12 Sudoeste 24 Sudoeste 0 -- -- 75
2019-12-11 21:00:00 15.5 14 Sudoeste 22 Sudoeste 0 -- -- 77
2019-12-11 20:00:00 15.7 7 Sur 26 Sudoeste 0 -- -- 79
2019-12-11 19:00:00 15.6 14 Sudoeste 25 Sudoeste 0 -- -- 78
2019-12-11 18:00:00 15.7 8 Sudoeste 22 Sudeste 0 -- -- 77
2019-12-11 17:00:00 16 8 Sur 19 Sudeste 0 -- -- 79
2019-12-11 16:00:00 16.1 9 Sudeste 30 Este 0 -- -- 80
2019-12-11 15:00:00 16.3 15 Este 34 Este 0 -- -- 86
2019-12-11 14:00:00 16.9 19 Este 27 Nordeste 0 -- -- 83
2019-12-11 13:00:00 17.2 10 Este 19 Este 0 -- -- 82
2019-12-11 12:00:00 16.4 13 Este 26 Este 0 -- -- 81
2019-12-11 11:00:00 16 6 Sudeste 25 Sudoeste 0 -- -- 86
2019-12-11 10:00:00 15.6 8 Sur 19 Sudoeste 0 -- -- 87
2019-12-11 09:00:00 15.4 8 Sudeste 19 Sudoeste 0.2 -- -- 92
2019-12-11 08:00:00 15.6 9 Este 22 Sudoeste 0 -- -- 93
2019-12-11 07:00:00 15.8 11 Sudeste 19 Sudeste 0 -- -- 89
2019-12-11 06:00:00 15.8 6 Sur 18 Sudoeste 0 -- -- 89
2019-12-11 05:00:00 15.8 9 Sur 31 Sudoeste 0 -- -- 85
2019-12-11 04:00:00 15.9 10 Sudoeste 17 Sudeste 0 -- -- 86
2019-12-11 03:00:00 16.1 10 Sur 28 Sudeste 0 -- -- 89
2019-12-11 02:00:00 15.8 17 Sudoeste 23 Sur 0 -- -- 86
2019-12-11 01:00:00 15.8 12 Sudoeste 23 Sudoeste 0 -- -- 91
2019-12-11 00:00:00 15.4 15 Sudoeste 23 Sudoeste 1.4 -- -- 95
2019-12-10 23:00:00 15.5 10 Sudoeste 24 Sudoeste 0.6 -- -- 95
2019-12-10 22:00:00 15.7 17 Sudoeste 21 Sudoeste 0 -- -- 88
2019-12-10 21:00:00 16 9 Sudoeste 17 Sudeste 0 -- -- 90
2019-12-10 20:00:00 16.4 9 Sudeste 24 Sudoeste 0 -- -- 87
2019-12-10 19:00:00 15.9 11 Sudoeste 19 Sudoeste 0 -- -- 81
2019-12-10 18:00:00 16.2 9 Sudoeste 20 Sudoeste 0 -- -- 82
2019-12-10 17:00:00 18.3 8 Sudeste 19 Sudeste 0 -- -- 76
2019-12-10 16:00:00 19.3 12 Sudeste 22 Sur 0 -- -- 70
2019-12-10 15:00:00 19.3 11 Este 24 Este 0 -- -- 70
2019-12-10 14:00:00 19.5 14 Este 26 Nordeste 0 -- -- 71
2019-12-10 13:00:00 19.4 8 Sudeste 27 Sudeste 0 -- -- 71
2019-12-10 12:00:00 19.1 12 Sur 26 Sudeste 0 -- -- 66
2019-12-10 11:00:00 18.7 11 Sudeste 25 Sudeste 0 -- -- 67
2019-12-10 10:00:00 17.9 12 Sudeste 22 Sur 0 -- -- 69
2019-12-10 09:00:00 15.6 9 Sudoeste 22 Sudoeste 0 -- -- 75
2019-12-10 08:00:00 15 12 Sudoeste 27 Sudoeste 0 -- -- 76
2019-12-10 07:00:00 14.7 11 Sudoeste 22 Sudeste 0 -- -- 79
2019-12-10 06:00:00 15.5 17 Sudoeste 29 Sur 0 -- -- 71
2019-12-10 05:00:00 15.5 16 Sudoeste 29 Sudoeste 0 -- -- 73
2019-12-10 04:00:00 15.3 16 Sudoeste 28 Sur 0 -- -- 69
2019-12-10 03:00:00 15.6 18 Sudoeste 32 Sudoeste 0 -- -- 73
2019-12-10 02:00:00 14.7 13 Sur 28 Sudoeste 0 -- -- 77
2019-12-10 01:00:00 14.5 15 Sudoeste 21 Sudoeste 0 -- -- 78
2019-12-10 00:00:00 13.9 13 Sudoeste 21 Sudoeste 0 -- -- 79
2019-12-09 23:00:00 14.6 12 Sudoeste 21 Sudoeste 0 -- -- 78
2019-12-09 22:00:00 14.4 14 Sudoeste 21 Sudoeste 0 -- -- 77
2019-12-09 21:00:00 14.6 10 Sudoeste 24 Sudoeste 0 -- -- 75
2019-12-09 20:00:00 14.6 14 Sudoeste 22 Sudoeste 0 -- -- 78
2019-12-09 19:00:00 14.6 13 Sudoeste 19 Sudoeste 0 -- -- 77
2019-12-09 18:00:00 15.8 8 Sudoeste 17 Sudoeste 0 -- -- 78
2019-12-09 17:00:00 16.9 8 Sudeste 18 Sudeste 0 -- -- 77
2019-12-09 16:00:00 17.9 10 Este 23 Este 0 -- -- 72
2019-12-09 15:00:00 17.7 9 Este 25 Este 0 -- -- 71
2019-12-09 14:00:00 18.3 15 Este 28 Este 0 -- -- 70
2019-12-09 13:00:00 18.7 15 Este 27 Este 0 -- -- 69
2019-12-09 12:00:00 17.5 15 Este 24 Este 0 -- -- 73
2019-12-09 11:00:00 17.9 10 Sudeste 23 Sudeste 0 -- -- 74
2019-12-09 10:00:00 16.6 11 Sudeste 21 Sudeste 0 -- -- 76
2019-12-09 09:00:00 15.5 11 Sudoeste 19 Sudoeste 0 -- -- 75
2019-12-09 08:00:00 15.2 9 Sudoeste 20 Sudoeste 0 -- -- 80
2019-12-09 07:00:00 15.2 10 Sudoeste 20 Sudoeste 0 -- -- 79
2019-12-09 06:00:00 15.4 9 Sur 21 Sur 0 -- -- 82
2019-12-09 05:00:00 15.7 11 Sudoeste 24 Sudoeste 0 -- -- 76
2019-12-09 04:00:00 15.3 6 Sur 18 Sudeste 0 -- -- 84
2019-12-09 03:00:00 15.6 10 Sudoeste 23 Sudoeste 0 -- -- 78
2019-12-09 02:00:00 15.4 6 Sur 24 Sudoeste 0 -- -- 86
2019-12-09 01:00:00 15.6 13 Sudoeste 19 Sudoeste 0 -- -- 86
2019-12-09 00:00:00 15.7 8 Sur 15 Sudoeste 0 -- -- 85
2019-12-08 23:00:00 15.6 10 Sudoeste 14 Sudoeste 0 -- -- 85
2019-12-08 22:00:00 15.7 12 Sudoeste 18 Sudoeste 0 -- -- 85
2019-12-08 21:00:00 15.8 7 Este 20 Sudoeste 0 -- -- 84
2019-12-08 20:00:00 15.3 10 Sudoeste 15 Este 0 -- -- 86
2019-12-08 19:00:00 15.7 6 Sudeste 15 Sudeste 0 -- -- 86
2019-12-08 18:00:00 16.1 5 Sur 18 Este 0 -- -- 83
2019-12-08 17:00:00 16.5 10 Este 17 Nordeste 0 -- -- 80
2019-12-08 16:00:00 16.8 12 Este 18 Este 0 -- -- 80
2019-12-08 15:00:00 16.9 13 Este 23 Nordeste 0 -- -- 83
2019-12-08 14:00:00 17 16 Este 25 Nordeste 0 -- -- 85
2019-12-08 13:00:00 16.5 15 Nordeste 24 Este 0 -- -- 88
2019-12-08 12:00:00 17 6 Sur 24 Oeste 0 -- -- 79
2019-12-08 11:00:00 17.6 9 Sudeste 18 Sudeste 0 -- -- 75
2019-12-08 10:00:00 16.6 8 Sudoeste 22 Sur 0 -- -- 78
2019-12-08 09:00:00 16.2 10 Sudoeste 21 Sudoeste 0 -- -- 74
2019-12-08 08:00:00 15 13 Sudoeste 19 Sudoeste 0 -- -- 77
2019-12-08 07:00:00 15.2 12 Sudoeste 23 Sudoeste 0 -- -- 75
2019-12-08 06:00:00 15 13 Sudoeste 22 Sudoeste 0 -- -- 75
2019-12-08 05:00:00 15.2 10 Sudoeste 18 Sudoeste 0 -- -- 79
2019-12-08 04:00:00 15.1 7 Sudoeste 15 Sur 0 -- -- 83
2019-12-08 03:00:00 15.2 7 Sudoeste 15 Sudoeste 0 -- -- 83
2019-12-08 02:00:00 15.2 8 Sudoeste 14 Sudoeste 0 -- -- 85
2019-12-08 01:00:00 15.5 7 Sudeste 15 Este 0 -- -- 83
2019-12-08 00:00:00 15.7 5 Sur 19 Este 0 -- -- 84
2019-12-07 23:00:00 15.8 5 Sudeste 24 Este 0 -- -- 86
2019-12-07 22:00:00 15.8 4 Este 18 Nordeste 0 -- -- 86
2019-12-07 21:00:00 15.8 4 Noroeste 13 Sudoeste 0 -- -- 86
2019-12-07 20:00:00 15.7 5 Oeste 12 Oeste 0 -- -- 84
2019-12-07 19:00:00 15.7 6 Norte 20 Nordeste 0 -- -- 81
2019-12-07 18:00:00 16 11 Nordeste 23 Este 0 -- -- 82
2019-12-07 17:00:00 16.3 14 Nordeste 23 Nordeste 0 -- -- 86
2019-12-07 16:00:00 16.8 11 Este 26 Este 0 -- -- 85
2019-12-07 15:00:00 17.1 10 Nordeste 23 Este 0 -- -- 82
2019-12-07 14:00:00 16.9 13 Nordeste 26 Nordeste 0 -- -- 84
2019-12-07 13:00:00 17.1 14 Nordeste 23 Nordeste 0 -- -- 83
2019-12-07 12:00:00 16.8 14 Nordeste 31 Este 0 -- -- 82
2019-12-07 11:00:00 16.8 15 Este 26 Nordeste 0 -- -- 84
2019-12-07 10:00:00 17 10 Nordeste 22 Este 0 -- -- 82
2019-12-07 09:00:00 16.5 9 Nordeste 21 Nordeste 0 -- -- 82
2019-12-07 08:00:00 15.7 12 Nordeste 24 Nordeste 0 -- -- 86
2019-12-07 07:00:00 15.6 15 Norte 24 Norte 0 -- -- 82
2019-12-07 06:00:00 15.4 8 Norte 23 Nordeste 0 -- -- 85
2019-12-07 05:00:00 15.1 6 Oeste 27 Norte 0 -- -- 85
2019-12-07 04:00:00 15.3 6 Noroeste 22 Norte 0 -- -- 84
2019-12-07 03:00:00 15.3 7 Norte 23 Norte 0 -- -- 83
2019-12-07 02:00:00 15.4 4 Noroeste 23 Nordeste 0 -- -- 84
2019-12-07 01:00:00 15.5 8 Noroeste 18 Noroeste 0 -- -- 83
2019-12-07 00:00:00 15.4 6 Noroeste 19 Nordeste 0 -- -- 85
2019-12-06 23:00:00 15.3 6 Norte 23 Noroeste 0 -- -- 86
2019-12-06 22:00:00 15.4 8 Noroeste 28 Noroeste 0 -- -- 86
2019-12-06 21:00:00 15.4 11 Oeste 22 Oeste 0 -- -- 84
2019-12-06 20:00:00 15.3 10 Norte 28 Noroeste 0 -- -- 84
2019-12-06 19:00:00 15.3 8 Noroeste 24 Noroeste 0.6 -- -- 88
2019-12-06 18:00:00 16 8 Noroeste 24 Norte 0 -- -- 79
2019-12-06 17:00:00 16.2 11 Oeste 24 Oeste 0 -- -- 77
2019-12-06 16:00:00 16.8 12 Norte 26 Norte 0 -- -- 74
2019-12-06 15:00:00 16.8 13 Norte 26 Nordeste 0 -- -- 75
2019-12-06 14:00:00 17.4 11 Norte 26 Norte 0 -- -- 74
2019-12-06 13:00:00 16.7 14 Norte 30 Norte 0 -- -- 76
2019-12-06 12:00:00 16.5 15 Norte 32 Nordeste 0 -- -- 80
2019-12-06 11:00:00 16 17 Nordeste 37 Norte 0.2 -- -- 84
2019-12-06 10:00:00 15.3 8 Oeste 18 Norte 0.4 -- -- 90
2019-12-06 09:00:00 15.3 6 Oeste 31 Norte 0 -- -- 86
2019-12-06 08:00:00 14.8 9 Norte 41 Norte 0.2 -- -- 87
2019-12-06 07:00:00 14.9 15 Norte 46 Norte 0 -- -- 88
2019-12-06 06:00:00 15.1 7 Noroeste 30 Nordeste 0 -- -- 82
2019-12-06 05:00:00 15.2 12 Norte 34 Norte 0 -- -- 84
2019-12-06 04:00:00 15.2 15 Norte 43 Nordeste 0 -- -- 82
2019-12-06 03:00:00 14.9 13 Norte 28 Norte 0 -- -- 87
2019-12-06 02:00:00 14.9 13 Noroeste 37 Norte 0 -- -- 87
2019-12-06 01:00:00 14.8 16 Norte 35 Noroeste 0.6 -- -- 84
2019-12-06 00:00:00 15.2 14 Norte 41 Norte 0 -- -- 77
2019-12-05 23:00:00 15.3 13 Norte 33 Norte 0 -- -- 80
2019-12-05 22:00:00 14.9 12 Noroeste 39 Noroeste 0 -- -- 84
2019-12-05 21:00:00 14.3 17 Norte 41 Norte 0.2 -- -- 91
2019-12-05 20:00:00 14.7 19 Norte 35 Norte 0 -- -- 86
2019-12-05 19:00:00 14.4 14 Oeste 35 Noroeste 0.2 -- -- 80
2019-12-05 18:00:00 14.1 17 Oeste 41 Norte 0 -- -- 82
2019-12-05 17:00:00 13 31 Norte 50 Norte 0.6 -- -- 95
2019-12-05 16:00:00 15.1 21 Oeste 36 Oeste 0 -- -- 80
2019-12-05 15:00:00 14.6 13 Noroeste 36 Noroeste 1 -- -- 85
2019-12-05 14:00:00 15.4 18 Noroeste 35 Noroeste 0 -- -- 86
2019-12-05 13:00:00 14.2 15 Norte 48 Norte 3.2 -- -- 95
2019-12-05 12:00:00 15 21 Noroeste 57 Noroeste 3.4 -- -- 89
2019-12-05 11:00:00 15.2 22 Noroeste 51 Norte 1.2 -- -- 89
2019-12-05 10:00:00 15.7 31 Norte 49 Norte 0 -- -- 81
2019-12-05 09:00:00 14.9 18 Norte 45 Norte 0 -- -- 85
2019-12-05 08:00:00 14.1 21 Norte 50 Noroeste 0 -- -- 85
2019-12-05 07:00:00 13.6 17 Noroeste 54 Norte 0.6 -- -- 81
2019-12-05 06:00:00 14.4 22 Norte 54 Norte 0 -- -- 78
2019-12-05 05:00:00 14.3 23 Norte 58 Norte 0.4 -- -- 80
2019-12-05 04:00:00 14.7 17 Noroeste 46 Norte 0 -- -- 74
2019-12-05 03:00:00 14.7 21 Norte 48 Norte 0.2 -- -- 72
2019-12-05 02:00:00 14.9 30 Norte 49 Norte 0 -- -- 69
2019-12-05 01:00:00 15 17 Noroeste 45 Noroeste 0 -- -- 78
2019-12-05 00:00:00 14.8 19 Noroeste 51 Norte 0.2 -- -- 89
2019-12-04 23:00:00 15 23 Norte 54 Norte 2.2 -- -- 99
2019-12-04 22:00:00 15.3 31 Norte 54 Norte 3.8 -- -- 98
2019-12-04 21:00:00 16 13 Noroeste 36 Noroeste 2 -- -- 93
2019-12-04 20:00:00 15.9 22 Oeste 38 Noroeste 0 -- -- 87
2019-12-04 19:00:00 15.3 19 Oeste 41 Noroeste 0.4 -- -- 87
2019-12-04 18:00:00 16.5 21 Noroeste 44 Oeste 0 -- -- 74
2019-12-04 17:00:00 17.5 15 Noroeste 35 Noroeste 0 -- -- 72
2019-12-04 16:00:00 18.1 13 Norte 42 Noroeste 0 -- -- 72
2019-12-04 15:00:00 18.4 14 Noroeste 47 Noroeste 0 -- -- 66
2019-12-04 14:00:00 18.4 9 Nordeste 31 Norte 0 -- -- 69
2019-12-04 13:00:00 18 14 Noroeste 38 Norte 0 -- -- 69
2019-12-04 12:00:00 17.7 21 Norte 32 Norte 0 -- -- 70
2019-12-04 11:00:00 18 17 Norte 28 Norte 0 -- -- 70
2019-12-04 10:00:00 17.8 12 Noroeste 26 Norte 0 -- -- 72
2019-12-04 09:00:00 15.6 13 Oeste 21 Oeste 0 -- -- 83
2019-12-04 08:00:00 15.1 10 Oeste 21 Oeste 0 -- -- 84
2019-12-04 07:00:00 14.7 13 Oeste 26 Oeste 0.2 -- -- 86
2019-12-04 06:00:00 15.7 12 Oeste 23 Oeste 0 -- -- 70
2019-12-04 05:00:00 15.6 14 Oeste 26 Oeste 0 -- -- 79
2019-12-04 04:00:00 15.8 10 Oeste 18 Oeste 0 -- -- 66
2019-12-04 03:00:00 15.8 10 Oeste 18 Oeste 0 -- -- 67
2019-12-04 02:00:00 15.6 12 Oeste 17 Oeste 0 -- -- 78
2019-12-04 01:00:00 15.2 9 Oeste 21 Sudoeste 0 -- -- 79
2019-12-04 00:00:00 14.5 14 Sudoeste 20 Sudoeste 0 -- -- 75
2019-12-03 23:00:00 14.7 10 Oeste 17 Sudoeste 0 -- -- 70
2019-12-03 22:00:00 15.5 10 Oeste 20 Oeste 0 -- -- 77
2019-12-03 21:00:00 15.5 15 Noroeste 24 Oeste 0 -- -- 76
2019-12-03 20:00:00 15.6 13 Oeste 22 Noroeste 0 -- -- 80
2019-12-03 19:00:00 15.3 13 Oeste 22 Oeste 0 -- -- 75
2019-12-03 18:00:00 15.5 8 Oeste 16 Oeste 0 -- -- 77
2019-12-03 17:00:00 15.6 6 Oeste 15 Noroeste 0 -- -- 75
2019-12-03 16:00:00 16.2 8 Norte 21 Norte 0 -- -- 78
2019-12-03 15:00:00 16.7 14 Norte 23 Norte 0 -- -- 75
2019-12-03 14:00:00 16.8 13 Norte 25 Norte 0 -- -- 72
2019-12-03 13:00:00 17.4 14 Norte 26 Norte 0 -- -- 70
2019-12-03 12:00:00 17.1 21 Norte 30 Norte 0 -- -- 71
2019-12-03 11:00:00 17.7 10 Norte 22 Norte 0 -- -- 70
2019-12-03 10:00:00 16.1 12 Noroeste 22 Oeste 0 -- -- 72
2019-12-03 09:00:00 15.4 10 Oeste 23 Noroeste 0 -- -- 73
2019-12-03 08:00:00 15.2 13 Oeste 30 Noroeste 0 -- -- 73
2019-12-03 07:00:00 15.1 13 Oeste 28 Oeste 0 -- -- 81
2019-12-03 06:00:00 15 18 Oeste 35 Oeste 0 -- -- 79
2019-12-03 05:00:00 14.5 18 Oeste 33 Oeste 0.6 -- -- 84
2019-12-03 04:00:00 14.6 13 Noroeste 35 Oeste 0.6 -- -- 90
2019-12-03 03:00:00 15.4 21 Oeste 36 Oeste 0 -- -- 78
2019-12-03 02:00:00 15.2 17 Oeste 34 Oeste 0 -- -- 80
2019-12-03 01:00:00 15 13 Noroeste 34 Noroeste 0 -- -- 79
2019-12-03 00:00:00 15.1 15 Noroeste 33 Oeste 0 -- -- 84
2019-12-02 23:00:00 14.9 18 Oeste 36 Oeste 0.4 -- -- 85
2019-12-02 22:00:00 14.6 19 Noroeste 35 Oeste 1.8 -- -- 93
2019-12-02 21:00:00 15.4 19 Oeste 35 Oeste 0 -- -- 87
2019-12-02 20:00:00 15.2 15 Noroeste 33 Norte 1.2 -- -- 90
2019-12-02 19:00:00 15.5 17 Norte 38 Noroeste 0 -- -- 87
2019-12-02 18:00:00 16 21 Oeste 34 Noroeste 0 -- -- 77
2019-12-02 17:00:00 17.2 15 Noroeste 36 Norte 0 -- -- 76
2019-12-02 16:00:00 17 14 Noroeste 34 Noroeste 0 -- -- 76
2019-12-02 15:00:00 17.1 19 Norte 37 Norte 0 -- -- 73
2019-12-02 14:00:00 17.9 13 Norte 39 Norte 0 -- -- 69
2019-12-02 13:00:00 18.2 20 Norte 42 Norte 0 -- -- 61
2019-12-02 12:00:00 17.3 18 Norte 39 Norte 0 -- -- 67
2019-12-02 11:00:00 16.8 11 Norte 32 Oeste 0 -- -- 76
2019-12-02 10:00:00 16.3 15 Noroeste 28 Noroeste 0 -- -- 78
2019-12-02 09:00:00 16.4 15 Noroeste 35 Norte 0 -- -- 84
2019-12-02 08:00:00 16.2 13 Noroeste 28 Noroeste 0 -- -- 85
2019-12-02 07:00:00 15.9 13 Noroeste 30 Noroeste 0.2 -- -- 88
2019-12-02 06:00:00 16.5 12 Oeste 25 Oeste 0 -- -- 72
2019-12-02 05:00:00 16.1 12 Oeste 20 Sudoeste 0 -- -- 75
2019-12-02 04:00:00 16.1 9 Oeste 17 Sudoeste 0 -- -- 86
2019-12-02 03:00:00 15.8 14 Sudoeste 20 Oeste 0 -- -- 78
2019-12-02 02:00:00 15.2 12 Sudoeste 19 Sudoeste 0 -- -- 80
2019-12-02 01:00:00 15.3 11 Sudoeste 17 Sudoeste 0 -- -- 79
2019-12-02 00:00:00 15 11 Sudoeste 17 Sudoeste 0 -- -- 85
2019-12-01 23:00:00 15.2 13 Sudoeste 16 Sudoeste 0 -- -- 83
2019-12-01 22:00:00 15.1 9 Sudoeste 20 Sudoeste 0 -- -- 85
2019-12-01 21:00:00 15.8 12 Sudoeste 17 Sudoeste 0 -- -- 82
2019-12-01 20:00:00 16.8 5 Sur 12 Sudoeste 0 -- -- 85
2019-12-01 19:00:00 17.1 7 Sudeste 18 Sudoeste 0 -- -- 85
2019-12-01 18:00:00 17.3 14 Sudoeste 20 Sudoeste 0 -- -- 79
2019-12-01 17:00:00 18.1 8 Sudeste 17 Sudeste 0 -- -- 80
2019-12-01 16:00:00 20 7 Este 17 Este 0 -- -- 70
2019-12-01 15:00:00 19.7 10 Sudeste 21 Sur 0 -- -- 70
2019-12-01 14:00:00 18.5 5 Sudeste 19 Este 0 -- -- 81
2019-12-01 13:00:00 18.7 11 Este 21 Este 0 -- -- 78
2019-12-01 12:00:00 18.3 14 Este 19 Este 0 -- -- 78
2019-12-01 11:00:00 18.1 9 Sudeste 20 Nordeste 0 -- -- 79
2019-12-01 10:00:00 17.6 7 Sudeste 21 Sudoeste 0 -- -- 81
2019-12-01 09:00:00 16.8 7 Sudoeste 18 Sudoeste 0 -- -- 83
2019-12-01 08:00:00 16.6 7 Sur 19 Sudoeste 0 -- -- 84
2019-12-01 07:00:00 16.4 12 Sudoeste 17 Sudoeste 0 -- -- 85
2019-12-01 06:00:00 16.2 11 Sudoeste 17 Sudoeste 0 -- -- 85
2019-12-01 05:00:00 15.9 12 Sudoeste 19 Sudoeste 0 -- -- 88
2019-12-01 04:00:00 15.7 12 Sudoeste 19 Sudoeste 0 -- -- 86
2019-12-01 03:00:00 16 11 Sudoeste 19 Sudoeste 0 -- -- 87
2019-12-01 02:00:00 15.9 14 Sudoeste 18 Sudoeste 0 -- -- 86
2019-12-01 01:00:00 16.3 12 Sudoeste 21 Sudoeste 0 -- -- 86
2019-12-01 00:00:00 16.3 14 Sudoeste 18 Sudoeste 0 -- -- 88
2019-11-30 23:00:00 16.4 11 Sudoeste 17 Sudoeste 0 -- -- 87
2019-11-30 22:00:00 16.4 11 Sudoeste 15 Sudoeste 0 -- -- 88
2019-11-30 21:00:00 16.6 8 Sudoeste 16 Sudoeste 0 -- -- 91
2019-11-30 20:00:00 16.2 11 Sudoeste 17 Sudoeste 0 -- -- 90
2019-11-30 19:00:00 16.2 12 Sudoeste 16 Sudoeste 0 -- -- 91
2019-11-30 18:00:00 17.7 6 Sur 15 Sudeste 0 -- -- 92
2019-11-30 17:00:00 18 8 Sudeste 14 Sudeste 0 -- -- 91
2019-11-30 16:00:00 18.3 10 Sudeste 17 Sudeste 0 -- -- 91
2019-11-30 15:00:00 18.6 10 Sudeste 22 Este 0 -- -- 90
2019-11-30 14:00:00 19.3 9 Este 19 Este 0 -- -- 88
2019-11-30 13:00:00 20.2 12 Este 17 Este 0 -- -- 84
2019-11-30 12:00:00 19.7 9 Este 15 Este 0 -- -- 85
2019-11-30 11:00:00 20.5 9 Este 15 Este 0 -- -- 83
2019-11-30 10:00:00 19.4 7 Sudeste 12 Sudeste 0 -- -- 81
2019-11-30 09:00:00 17.5 6 Sudoeste 15 Sudoeste 0 -- -- 87
2019-11-30 08:00:00 15.9 12 Sudoeste 17 Sudoeste 0 -- -- 91
2019-11-30 07:00:00 15.5 11 Sudoeste 16 Sudoeste 0 -- -- 89
2019-11-30 06:00:00 15.7 10 Sudoeste 16 Sudoeste 0 -- -- 91
2019-11-30 05:00:00 16.5 8 Sudoeste 18 Sudoeste 0 -- -- 90
2019-11-30 04:00:00 16.8 9 Sudoeste 17 Sudoeste 0 -- -- 87
2019-11-30 03:00:00 16.9 10 Sudoeste 16 Sudoeste 0 -- -- 87
2019-11-30 02:00:00 16.9 12 Sudoeste 15 Sudoeste 0 -- -- 87
2019-11-30 01:00:00 17.2 5 Sudoeste 16 Sudoeste 0 -- -- 87
2019-11-30 00:00:00 17.4 6 Sudeste 14 Sur 0 -- -- 91
2019-11-29 23:00:00 17.4 6 Sudoeste 12 Sudeste 0 -- -- 91
2019-11-29 22:00:00 17.5 6 Sur 17 Sudoeste 0 -- -- 91
2019-11-29 21:00:00 17.6 4 Sur 14 Sudeste 0 -- -- 92
2019-11-29 20:00:00 17.6 6 Sudeste 13 Este 0 -- -- 94
2019-11-29 19:00:00 17.6 6 Este 14 Este 0 -- -- 94
2019-11-29 18:00:00 17.9 9 Nordeste 15 Este 0 -- -- 93
2019-11-29 17:00:00 18.4 9 Este 14 Este 0 -- -- 91
2019-11-29 16:00:00 19.1 10 Este 18 Este 0 -- -- 87
2019-11-29 15:00:00 20.6 9 Este 17 Este 0 -- -- 80
2019-11-29 14:00:00 21.2 9 Este 16 Este 0 -- -- 78
2019-11-29 13:00:00 20.6 8 Este 21 Este 0 -- -- 81
2019-11-29 12:00:00 21.2 10 Este 18 Este 0 -- -- 78
2019-11-29 11:00:00 20.2 8 Este 18 Este 0 -- -- 79
2019-11-29 10:00:00 19.1 8 Sudeste 17 Sudeste 0 -- -- 78
2019-11-29 09:00:00 17.4 8 Sur 23 Sudoeste 0 -- -- 85
2019-11-29 08:00:00 16.1 12 Sudoeste 21 Sudoeste 0 -- -- 86
2019-11-29 07:00:00 16 9 Sudoeste 17 Sudoeste 0 -- -- 84
2019-11-29 06:00:00 15.7 10 Sudoeste 16 Sudoeste 0 -- -- 87
2019-11-29 05:00:00 16.2 10 Sudoeste 20 Sudoeste 0 -- -- 86
2019-11-29 04:00:00 16.4 8 Sudoeste 14 Sudoeste 0 -- -- 84
2019-11-29 03:00:00 16.6 10 Sudoeste 17 Sudoeste 0 -- -- 83
2019-11-29 02:00:00 16.5 6 Sudoeste 15 Sudoeste 0 -- -- 85
2019-11-29 01:00:00 16.5 9 Sudoeste 17 Sudoeste 0 -- -- 82
2019-11-29 00:00:00 16.3 9 Sudoeste 14 Sudoeste 0 -- -- 82
2019-11-28 23:00:00 16.4 9 Sudoeste 17 Sudoeste 0 -- -- 81
2019-11-28 22:00:00 16.2 9 Sudoeste 15 Sudoeste 0 -- -- 83
2019-11-28 21:00:00 16.3 12 Sudoeste 17 Sudoeste 0 -- -- 83
2019-11-28 20:00:00 16.4 8 Sudoeste 13 Sudoeste 0 -- -- 86
2019-11-28 19:00:00 16.8 3 Sudoeste 10 Sudeste 0 -- -- 87
2019-11-28 18:00:00 17.1 4 Este 15 Este 0 -- -- 86
2019-11-28 17:00:00 17.6 5 Sudeste 13 Este 0 -- -- 84
2019-11-28 16:00:00 18.4 5 Sudeste 17 Este 0 -- -- 77
2019-11-28 15:00:00 18.5 10 Este 18 Este 0 -- -- 80
2019-11-28 14:00:00 18.2 8 Este 17 Sudeste 0 -- -- 77
2019-11-28 13:00:00 18 9 Sudeste 19 Nordeste 0 -- -- 81
2019-11-28 12:00:00 18.3 10 Sudeste 22 Este 0 -- -- 81
2019-11-28 11:00:00 18 9 Sudeste 17 Sur 0 -- -- 81
2019-11-28 10:00:00 17.5 7 Sur 17 Sudoeste 0 -- -- 80
2019-11-28 09:00:00 16.6 14 Sudoeste 26 Sudoeste 0 -- -- 80
2019-11-28 08:00:00 16.5 9 Sudoeste 19 Sudoeste 0 -- -- 81
2019-11-28 07:00:00 16.5 12 Sudoeste 23 Sudoeste 0 -- -- 81
2019-11-28 06:00:00 16.2 9 Sudoeste 16 Sudoeste 0 -- -- 83
2019-11-28 05:00:00 16.4 9 Sudoeste 18 Sudoeste 0 -- -- 82
2019-11-28 04:00:00 16.2 10 Sudoeste 18 Sudoeste 0 -- -- 83
2019-11-28 03:00:00 16.3 11 Sudoeste 17 Sudoeste 0 -- -- 80
2019-11-28 02:00:00 16.7 9 Sudoeste 17 Sur 0 -- -- 80
2019-11-28 01:00:00 16.8 9 Sudoeste 17 Sudoeste 0 -- -- 80
2019-11-28 00:00:00 16.7 7 Sur 21 Sudoeste 0 -- -- 83
2019-11-27 23:00:00 16.5 13 Sudoeste 21 Sudoeste 0 -- -- 82
2019-11-27 22:00:00 16.3 9 Sudoeste 13 Sudoeste 0 -- -- 83
2019-11-27 21:00:00 16.5 6 Sur 13 Sudeste 0 -- -- 84
2019-11-27 20:00:00 16.5 11 Sudoeste 18 Sudoeste 0 -- -- 83
2019-11-27 19:00:00 16.5 10 Sudoeste 14 Sudoeste 0 -- -- 83
2019-11-27 18:00:00 16.9 5 Sudeste 17 Este 0 -- -- 82
2019-11-27 17:00:00 17.5 7 Este 13 Este 0 -- -- 81
2019-11-27 16:00:00 17.9 9 Este 18 Este 0 -- -- 78
2019-11-27 15:00:00 18.6 10 Este 19 Este 0 -- -- 78
2019-11-27 14:00:00 18.4 8 Este 19 Este 0 -- -- 78
2019-11-27 13:00:00 18.4 8 Este 20 Este 0 -- -- 80
2019-11-27 05:00:00 -- -- -- -- -- -- -- -- --
2019-11-27 04:00:00 16 8 Sudoeste 14 Sudoeste 0 -- -- 90
2019-11-27 03:00:00 16.1 8 Sudoeste 12 Sudoeste 0 -- -- 90
2019-11-27 02:00:00 16 6 Sudoeste 12 Sudoeste 0 -- -- 93
2019-11-27 01:00:00 15.9 9 Sudoeste 14 Sudoeste 0 -- -- 93
2019-11-27 00:00:00 16.1 8 Sudoeste 15 Sudoeste 0.2 -- -- 93
2019-11-26 23:00:00 16 12 Sudoeste 15 Sudoeste 0.2 -- -- 94
2019-11-26 22:00:00 16.4 5 Sur 14 Sudoeste 0 -- -- 93
2019-11-26 21:00:00 16.3 6 Sur 14 Sudeste 0.2 -- -- 94
2019-11-26 20:00:00 16.3 3 Sur 15 Este 0.6 -- -- 96
2019-11-26 19:00:00 16.2 10 Nordeste 21 Este 0.4 -- -- 98
2019-11-26 18:00:00 16.5 4 Nordeste 10 Este 1.4 -- -- 95
2019-11-26 17:00:00 16.8 5 Nordeste 12 Este 0.2 -- -- 94
2019-11-26 16:00:00 16.8 8 Sudoeste 11 Sudoeste 0 -- -- 92
2019-11-26 15:00:00 17 3 Sudeste 14 Nordeste 0.6 -- -- 93
2019-11-26 14:00:00 17.2 6 Nordeste 15 Este 0.4 -- -- 94
2019-11-26 13:00:00 17.3 5 Sudeste 12 Este 0.6 -- -- 92
2019-11-26 12:00:00 17.8 6 Este 12 Sudeste 0 -- -- 87
2019-11-26 11:00:00 17.7 5 Este 14 Nordeste 0 -- -- 89
2019-11-26 10:00:00 17.6 6 Sudeste 13 Sudeste 0 -- -- 82
2019-11-26 09:00:00 16.4 11 Sudoeste 20 Sudoeste 0 -- -- 75
2019-11-26 08:00:00 15.7 12 Sudoeste 19 Sudoeste 0 -- -- 82
2019-11-26 07:00:00 16.1 12 Sudoeste 20 Sudoeste 0 -- -- 83
2019-11-26 06:00:00 16.6 8 Sudeste 15 Sur 0 -- -- 81
2019-11-26 05:00:00 16.6 6 Sur 18 Sudeste 0 -- -- 86
2019-11-26 04:00:00 16.5 6 Sudoeste 17 Sur 0 -- -- 87
2019-11-26 03:00:00 16.3 9 Sudoeste 17 Sudoeste 0 -- -- 88
2019-11-26 02:00:00 16.4 9 Sudoeste 15 Sudoeste 0 -- -- 88
2019-11-26 01:00:00 16.8 5 Sudeste 25 Sudoeste 0 -- -- 79
2019-11-26 00:00:00 16.7 6 Sur 23 Sudoeste 0 -- -- 76
2019-11-25 23:00:00 17.1 18 Sudoeste 28 Sudoeste 0 -- -- 70
2019-11-25 22:00:00 17 12 Sudoeste 19 Sudoeste 0 -- -- 70
2019-11-25 21:00:00 16.6 11 Sudoeste 17 Sudoeste 0 -- -- 79
2019-11-25 20:00:00 16.5 8 Sudoeste 15 Sudoeste 0 -- -- 74
2019-11-25 19:00:00 16.3 8 Sudoeste 13 Sudoeste 0 -- -- 74
2019-11-25 18:00:00 16.7 8 Sudoeste 13 Sudoeste 0 -- -- 76
2019-11-25 17:00:00 17.3 8 Este 12 Este 0 -- -- 77
2019-11-25 16:00:00 17.9 3 Norte 12 Este 0 -- -- 75
2019-11-25 15:00:00 17.8 9 Nordeste 17 Este 0 -- -- 77
2019-11-25 14:00:00 19.3 13 Este 19 Este 0 -- -- 73
2019-11-25 13:00:00 18.2 9 Este 19 Sudoeste 0 -- -- 72
2019-11-25 12:00:00 18.2 11 Sudoeste 24 Sudoeste 0 -- -- 65
2019-11-25 11:00:00 17.7 9 Sudoeste 19 Sudoeste 0 -- -- 69
2019-11-25 10:00:00 16.7 14 Sudoeste 20 Sudoeste 0 -- -- 70
2019-11-25 09:00:00 16.3 4 Sudoeste 18 Sudoeste 0 -- -- 74
2019-11-25 08:00:00 15.8 11 Sudoeste 22 Sudoeste 0 -- -- 73
2019-11-25 07:00:00 15.6 15 Sudoeste 20 Sudoeste 0 -- -- 73
2019-11-25 06:00:00 15.5 11 Sudoeste 18 Sur 0 -- -- 74
2019-11-25 05:00:00 15.6 12 Sudoeste 24 Sudoeste 0 -- -- 74
2019-11-25 04:00:00 15.2 17 Sudoeste 23 Sudoeste 0 -- -- 75
2019-11-25 03:00:00 15 14 Sudoeste 19 Sudoeste 0 -- -- 80
2019-11-25 02:00:00 15.2 14 Sudoeste 16 Sudoeste 0 -- -- 82
2019-11-25 01:00:00 15.8 10 Sudoeste 15 Sudoeste 0 -- -- 83
2019-11-25 00:00:00 16.6 6 Sur 24 Sudoeste 0 -- -- 82
2019-11-24 23:00:00 16.5 12 Sudoeste 18 Sudoeste 0 -- -- 79
2019-11-24 22:00:00 16.1 13 Sudoeste 25 Sudoeste 0 -- -- 79
2019-11-24 21:00:00 16.5 18 Sudoeste 28 Sudoeste 0 -- -- 74
2019-11-24 20:00:00 16.4 17 Sudoeste 27 Sudoeste 0 -- -- 77
2019-11-24 19:00:00 17.1 12 Sudoeste 19 Sudoeste 0 -- -- 79
2019-11-24 18:00:00 17.4 6 Sudeste 12 Sudeste 0 -- -- 91
2019-11-24 17:00:00 18.1 6 Sudeste 14 Este 0.2 -- -- 88
2019-11-24 16:00:00 18.4 5 Este 14 Este 0 -- -- 86
2019-11-24 15:00:00 18.9 4 Este 11 Nordeste 0 -- -- 82
2019-11-24 14:00:00 18.8 8 Nordeste 13 Este 0 -- -- 83
2019-11-24 13:00:00 19.3 9 Este 17 Este 0 -- -- 84
2019-11-24 12:00:00 19.5 9 Este 19 Nordeste 0 -- -- 82
2019-11-24 11:00:00 18.5 12 Este 18 Este 0 -- -- 89
2019-11-24 10:00:00 18.5 10 Este 13 Este 0 -- -- 86
2019-11-24 09:00:00 17.2 7 Sudoeste 14 Sudoeste 0 -- -- 79
2019-11-24 08:00:00 16.3 10 Sudoeste 13 Sudoeste 0 -- -- 80
2019-11-24 07:00:00 15.7 7 Oeste 15 Sudoeste 0 -- -- 85
2019-11-24 06:00:00 16.4 7 Oeste 19 Oeste 0 -- -- 81
2019-11-24 05:00:00 16.4 11 Sudoeste 21 Sudoeste 0 -- -- 77
2019-11-24 04:00:00 16.6 14 Sudoeste 21 Sudoeste 0 -- -- 76
2019-11-24 03:00:00 16.8 15 Sudoeste 23 Sudoeste 0 -- -- 75
2019-11-24 02:00:00 16.9 13 Oeste 19 Oeste 0 -- -- 76
2019-11-24 01:00:00 16.9 10 Sudoeste 16 Sudoeste 0 -- -- 75
2019-11-24 00:00:00 16.8 11 Sudoeste 17 Sudoeste 0 -- -- 72
2019-11-23 23:00:00 16.9 12 Sudoeste 18 Sudoeste 0 -- -- 67
2019-11-23 22:00:00 17.1 11 Sudoeste 17 Sudoeste 0 -- -- 68
2019-11-23 21:00:00 17 11 Sudoeste 16 Sudoeste 0 -- -- 77
2019-11-23 20:00:00 16.7 9 Oeste 14 Sudoeste 0 -- -- 74
2019-11-23 19:00:00 16.9 9 Oeste 16 Sudoeste 0 -- -- 73
2019-11-23 18:00:00 17.5 8 Oeste 13 Sudoeste 0 -- -- 88
2019-11-23 17:00:00 19.5 6 Norte 14 Norte 0 -- -- 84
2019-11-23 16:00:00 19.4 7 Norte 21 Norte 0 -- -- 86
2019-11-23 15:00:00 20.9 10 Norte 23 Norte 0 -- -- 80
2019-11-23 14:00:00 20.7 16 Norte 25 Norte 0 -- -- 78
2019-11-23 13:00:00 21 14 Norte 21 Norte 0 -- -- 76
2019-11-23 12:00:00 20.8 15 Norte 25 Norte 0 -- -- 76
2019-11-23 11:00:00 21.4 12 Norte 23 Norte 0 -- -- 77
2019-11-23 10:00:00 19.4 11 Norte 20 Norte 0 -- -- 83
2019-11-23 09:00:00 19.3 10 Sudoeste 27 Oeste 0 -- -- 77
2019-11-23 08:00:00 18.1 12 Oeste 28 Oeste 0 -- -- 86
2019-11-23 07:00:00 18.2 10 Noroeste 31 Oeste 0 -- -- 86
2019-11-23 06:00:00 18.3 16 Oeste 30 Noroeste 0 -- -- 83
2019-11-23 05:00:00 18.1 16 Oeste 30 Oeste 0 -- -- 85
2019-11-23 04:00:00 18.2 14 Noroeste 26 Noroeste 0 -- -- 89
2019-11-23 03:00:00 18.4 13 Noroeste 26 Noroeste 0 -- -- 87
2019-11-23 02:00:00 18.2 14 Noroeste 27 Oeste 0 -- -- 92
2019-11-23 01:00:00 18.2 11 Noroeste 27 Oeste 0.2 -- -- 92
2019-11-23 00:00:00 18.2 16 Noroeste 33 Noroeste 0 -- -- 92
2019-11-22 23:00:00 18.2 12 Noroeste 27 Oeste 0 -- -- 92
2019-11-22 22:00:00 18 5 Sudoeste 25 Oeste 0 -- -- 87
2019-11-22 21:00:00 18 9 Noroeste 20 Noroeste 0 -- -- 90
2019-11-22 20:00:00 17.9 4 Oeste 21 Noroeste 0 -- -- 88
2019-11-22 19:00:00 17.2 5 Sudoeste 8 Sudoeste 0 -- -- 90
2019-11-22 18:00:00 19 0 Calma 8 Nordeste 0 -- -- 84
2019-11-22 17:00:00 21 4 Este 13 Este 0 -- -- 75
2019-11-22 16:00:00 21.2 6 Este 20 Sur 0 -- -- 76
2019-11-22 15:00:00 23 8 Sudeste 26 Noroeste 0 -- -- 70
2019-11-22 14:00:00 21.8 10 Norte 30 Noroeste 0 -- -- 74
2019-11-22 13:00:00 20.5 12 Norte 23 Noroeste 0 -- -- 75
2019-11-22 12:00:00 20.7 7 Norte 15 Este 0 -- -- 73
2019-11-22 11:00:00 20.7 6 Sudeste 12 Sudeste 0 -- -- 70
2019-11-22 10:00:00 18.6 5 Sur 16 Sudoeste 0 -- -- 75
2019-11-22 09:00:00 17.9 10 Nordeste 23 Norte 0 -- -- 72
2019-11-22 08:00:00 15.8 10 Oeste 23 Oeste 0 -- -- 82
2019-11-22 07:00:00 16.1 8 Oeste 29 Noroeste 0 -- -- 84
2019-11-22 06:00:00 16.8 13 Norte 24 Noroeste 0 -- -- 86
2019-11-22 05:00:00 15.8 10 Oeste 26 Noroeste 0 -- -- 85
2019-11-22 04:00:00 16.3 13 Sudoeste 28 Sudoeste 0 -- -- 85
2019-11-22 03:00:00 16.2 5 Oeste 23 Noroeste 0 -- -- 91
2019-11-22 02:00:00 16.9 12 Noroeste 23 Noroeste 0 -- -- 90
2019-11-22 01:00:00 17 10 Norte 27 Noroeste 0 -- -- 91
2019-11-22 00:00:00 17 12 Noroeste 27 Oeste 1 -- -- 93
2019-11-21 23:00:00 17.3 11 Norte 23 Noroeste 0.8 -- -- 95
2019-11-21 22:00:00 17.7 9 Noroeste 31 Oeste 1.2 -- -- 94
2019-11-21 21:00:00 18.1 15 Noroeste 28 Noroeste 0.4 -- -- 92
2019-11-21 20:00:00 17.2 7 Oeste 17 Oeste 0 -- -- 89
2019-11-21 19:00:00 17 10 Sudoeste 14 Sudoeste 0 -- -- 84
2019-11-21 18:00:00 17.7 5 Sudoeste 10 Sudoeste 0 -- -- 82
2019-11-21 17:00:00 19.8 5 Sudeste 15 Este 0 -- -- 71
2019-11-21 16:00:00 20.9 10 Este 18 Este 0 -- -- 66
2019-11-21 15:00:00 21.4 8 Este 19 Nordeste 0 -- -- 69
2019-11-21 14:00:00 20.9 11 Este 19 Este 0 -- -- 68
2019-11-21 13:00:00 21 10 Este 22 Este 0 -- -- 66
2019-11-21 12:00:00 20.7 9 Este 17 Este 0 -- -- 69
2019-11-21 11:00:00 19.3 4 Sudeste 12 Sur 0 -- -- 72
2019-11-21 10:00:00 18.9 6 Sudeste 10 Sur 0 -- -- 68
2019-11-21 09:00:00 16.4 9 Sudoeste 16 Sudoeste 0 -- -- 75
2019-11-21 08:00:00 15.1 8 Sudoeste 19 Sudoeste 0 -- -- 81
2019-11-21 07:00:00 -- -- -- -- -- -- -- -- --
2019-11-21 06:00:00 -- -- -- -- -- -- -- -- --
2019-11-21 05:00:00 -- -- -- -- -- -- -- -- --
2019-11-21 04:00:00 -- -- -- -- -- -- -- -- --
2019-11-21 03:00:00 -- -- -- -- -- -- -- -- --
2019-11-21 02:00:00 -- -- -- -- -- -- -- -- --
2019-11-21 01:00:00 -- -- -- -- -- -- -- -- --
2019-11-21 00:00:00 -- -- -- -- -- -- -- -- --
2019-11-20 23:00:00 -- -- -- -- -- -- -- -- --
2019-11-20 22:00:00 -- -- -- -- -- -- -- -- --
2019-11-20 21:00:00 -- -- -- -- -- -- -- -- --
2019-11-20 20:00:00 -- -- -- -- -- -- -- -- --
2019-11-20 19:00:00 -- -- -- -- -- -- -- -- --
2019-11-20 18:00:00 16.5 9 Oeste 21 Norte 0 -- -- 86
2019-11-20 17:00:00 17 14 Norte 22 Norte 0 -- -- 86
2019-11-20 16:00:00 17.2 13 Norte 26 Noroeste 0 -- -- 86
2019-11-20 15:00:00 17.3 13 Noroeste 26 Noroeste 0 -- -- 89
2019-11-20 14:00:00 17.6 19 Norte 34 Noroeste 0.2 -- -- 87
2019-11-20 13:00:00 18.2 12 Norte 25 Norte 0.2 -- -- 86
2019-11-20 12:00:00 17.1 10 Norte 22 Norte 0.4 -- -- 93
2019-11-20 11:00:00 18 10 Norte 23 Noroeste 0 -- -- 88
2019-11-20 10:00:00 19.6 5 Sudeste 9 Este 0 -- -- 69
2019-11-20 09:00:00 19 6 Este 17 Noroeste 0 -- -- 73
2019-11-20 08:00:00 16.3 9 Oeste 23 Oeste 0 -- -- 76
2019-11-20 07:00:00 15.5 8 Sudoeste 22 Oeste 0 -- -- 74
2019-11-20 06:00:00 15.5 12 Oeste 22 Sudoeste 0 -- -- 68
2019-11-20 05:00:00 14.8 13 Sudoeste 19 Sudoeste 0 -- -- 76
2019-11-20 04:00:00 14.4 10 Sudoeste 20 Sudoeste 0 -- -- 81
2019-11-20 03:00:00 15.2 8 Oeste 23 Sudoeste 0 -- -- 75
2019-11-20 02:00:00 14.9 9 Sudoeste 22 Sudoeste 0 -- -- 73
2019-11-20 01:00:00 14.8 9 Sudoeste 16 Sudoeste 0 -- -- 79
2019-11-20 00:00:00 15.1 12 Sudoeste 17 Oeste 0 -- -- 77
2019-11-19 23:00:00 15.3 10 Oeste 19 Oeste 0 -- -- 77
2019-11-19 22:00:00 15.9 10 Sudoeste 17 Sudoeste 0 -- -- 77
2019-11-19 21:00:00 15.9 9 Oeste 22 Oeste 0 -- -- 78
2019-11-19 20:00:00 16.1 13 Oeste 25 Oeste 0 -- -- 78
2019-11-19 19:00:00 15.8 6 Noroeste 17 Noroeste 0 -- -- 84
2019-11-19 18:00:00 16.4 6 Noroeste 22 Oeste 0 -- -- 84
2019-11-19 17:00:00 18.1 9 Noroeste 23 Norte 0 -- -- 76
2019-11-19 16:00:00 18.6 11 Norte 30 Oeste 0 -- -- 74
2019-11-19 15:00:00 19.3 12 Norte 30 Noroeste 0 -- -- 69
2019-11-19 14:00:00 19 15 Norte 30 Norte 0 -- -- 70
2019-11-19 13:00:00 19.2 19 Norte 27 Norte 0 -- -- 71
2019-11-19 12:00:00 19 15 Norte 33 Norte 0 -- -- 67
2019-11-19 11:00:00 18.4 19 Norte 31 Norte 0 -- -- 70
2019-11-19 10:00:00 17.6 15 Norte 29 Noroeste 0 -- -- 77
2019-11-19 09:00:00 16.8 15 Noroeste 23 Noroeste 0 -- -- 75
2019-11-19 08:00:00 14.3 14 Oeste 23 Oeste 0 -- -- 81
2019-11-19 07:00:00 14.1 12 Oeste 23 Oeste 0 -- -- 84
2019-11-19 06:00:00 14.1 7 Oeste 18 Sudoeste 0 -- -- 82
2019-11-19 05:00:00 14.4 13 Sudoeste 24 Sudoeste 0 -- -- 79
2019-11-19 04:00:00 14.7 17 Sudoeste 25 Sudoeste 0 -- -- 79
2019-11-19 03:00:00 14.4 18 Sudoeste 24 Sudoeste 0 -- -- 82
2019-11-19 02:00:00 14.5 14 Sudoeste 21 Sudoeste 0 -- -- 84
2019-11-19 01:00:00 14.6 13 Sudoeste 19 Sudoeste 0 -- -- 85
2019-11-19 00:00:00 14.8 13 Sudoeste 23 Sudoeste 0.4 -- -- 86
2019-11-18 23:00:00 15 13 Sudoeste 20 Sudoeste 0 -- -- 84
2019-11-18 22:00:00 14.6 12 Sudoeste 17 Sudoeste 0 -- -- 85
2019-11-18 21:00:00 14.6 13 Sudoeste 22 Sudoeste 0 -- -- 79
2019-11-18 20:00:00 14.5 13 Sudoeste 19 Sudoeste 0 -- -- 86
2019-11-18 19:00:00 15.4 10 Sudoeste 16 Sudoeste 0 -- -- 86
2019-11-18 18:00:00 16 4 Noroeste 9 Norte 0 -- -- 85
2019-11-18 17:00:00 16.5 5 Nordeste 12 Norte 0 -- -- 83
2019-11-18 16:00:00 16.9 7 Nordeste 14 Nordeste 0 -- -- 82
2019-11-18 15:00:00 16.7 8 Nordeste 15 Este 0 -- -- 85
2019-11-18 14:00:00 16.2 4 Oeste 12 Oeste 0.2 -- -- 88
2019-11-18 13:00:00 16.1 8 Sudoeste 18 Sudoeste 0.2 -- -- 87
2019-11-18 12:00:00 15.4 7 Sur 21 Este 1 -- -- 93
2019-11-18 11:00:00 16.2 6 Sudoeste 14 Este 0 -- -- 91
2019-11-18 10:00:00 16.2 7 Este 19 Nordeste 0 -- -- 93
2019-11-18 09:00:00 15 10 Nordeste 30 Sudoeste 0 -- -- 94
2019-11-18 08:00:00 14.1 19 Sudoeste 25 Sudoeste 0.8 -- -- 93
2019-11-18 07:00:00 14.6 12 Sudoeste 21 Sudoeste 0 -- -- 87
2019-11-18 06:00:00 14.4 13 Sudoeste 25 Sudoeste 0 -- -- 89
2019-11-18 05:00:00 14.1 16 Sudoeste 21 Sudoeste 3.2 -- -- 92
2019-11-18 04:00:00 13.9 8 Sudoeste 29 Nordeste 0.2 -- -- 96
2019-11-18 03:00:00 14.6 12 Sudoeste 23 Sudoeste 0 -- -- 85
2019-11-18 02:00:00 14.7 15 Sudoeste 21 Sudoeste 0 -- -- 87
2019-11-18 01:00:00 14.5 15 Sudoeste 22 Sudoeste 0.6 -- -- 88
2019-11-18 00:00:00 14.7 12 Sudeste 24 Nordeste 0.6 -- -- 93
2019-11-17 23:00:00 14.8 12 Sudoeste 19 Sudoeste 0 -- -- 87
2019-11-17 22:00:00 15 6 Sur 21 Sudoeste 0 -- -- 89
2019-11-17 21:00:00 14.6 8 Sudoeste 19 Sudoeste 1.8 -- -- 91
2019-11-17 20:00:00 15.1 8 Sudoeste 21 Sudoeste 0 -- -- 85
2019-11-17 19:00:00 15 4 Este 19 Sudoeste 0 -- -- 90
2019-11-17 18:00:00 15 9 Sudoeste 19 Sudoeste 0 -- -- 91
2019-11-17 17:00:00 14.9 5 Sudoeste 20 Este 1.2 -- -- 93
2019-11-17 16:00:00 15.7 10 Sudoeste 24 Sudoeste 0 -- -- 84
2019-11-17 15:00:00 15.5 19 Este 32 Este 0.2 -- -- 94
2019-11-17 14:00:00 16.6 16 Este 31 Este 0 -- -- 88
2019-11-17 13:00:00 16.4 13 Este 28 Este 0.4 -- -- 89
2019-11-17 12:00:00 16.6 9 Este 17 Oeste 0.4 -- -- 90
2019-11-17 11:00:00 15.9 9 Este 22 Este 2.2 -- -- 83
2019-11-17 10:00:00 15.2 8 Sur 20 Sudoeste 0 -- -- 90
2019-11-17 09:00:00 14.4 8 Sudeste 19 Sudoeste 3.2 -- -- 96
2019-11-17 08:00:00 14.2 15 Sudoeste 21 Sudoeste 0.2 -- -- 90
2019-11-17 07:00:00 14.3 15 Este 26 Este 0.8 -- -- 96
2019-11-17 06:00:00 14.6 5 Sudoeste 21 Sudoeste 0 -- -- 91
2019-11-17 05:00:00 14.5 15 Sudoeste 26 Sudoeste 0.2 -- -- 87
2019-11-17 04:00:00 14.5 11 Sudoeste 23 Sudoeste 0 -- -- 86
2019-11-17 03:00:00 14.9 16 Sudoeste 22 Sudoeste 0 -- -- 80
2019-11-17 02:00:00 15 14 Sudoeste 20 Sudoeste 0 -- -- 82
2019-11-17 01:00:00 14.7 13 Sudoeste 24 Sudoeste 0.2 -- -- 86
2019-11-17 00:00:00 15.3 12 Sudoeste 21 Sudeste 0 -- -- 80
2019-11-16 23:00:00 15.1 11 Sudoeste 25 Sur 0 -- -- 82
2019-11-16 22:00:00 14.9 8 Sudoeste 21 Este 0 -- -- 82
2019-11-16 21:00:00 15.3 6 Sudoeste 35 Sudoeste 0 -- -- 85
2019-11-16 20:00:00 14.9 17 Sudoeste 26 Sudoeste 1 -- -- 87
2019-11-16 19:00:00 15.5 10 Sudoeste 18 Oeste 0 -- -- 86
2019-11-16 18:00:00 15.6 9 Sudoeste 21 Nordeste 0 -- -- 89
2019-11-16 17:00:00 16.2 9 Sudoeste 23 Sudoeste 0 -- -- 79
2019-11-16 16:00:00 17.1 5 Sudoeste 21 Sudoeste 0 -- -- 82
2019-11-16 15:00:00 16.1 8 Sudoeste 28 Nordeste 0.4 -- -- 85
2019-11-16 14:00:00 17.2 4 Sudoeste 22 Este 0.2 -- -- 83
2019-11-16 13:00:00 17.6 4 Sudeste 23 Este 0 -- -- 77
2019-11-16 12:00:00 18.5 12 Nordeste 23 Este 0 -- -- 80
2019-11-16 11:00:00 17.2 5 Norte 27 Este 0.6 -- -- 78
2019-11-16 10:00:00 16.5 8 Nordeste 16 Este 0 -- -- 82
2019-11-16 09:00:00 15.1 5 Sudoeste 14 Noroeste 0 -- -- 85
2019-11-16 08:00:00 14.9 4 Noroeste 16 Oeste 0 -- -- 80
2019-11-16 07:00:00 14.6 6 Sudoeste 22 Norte 0 -- -- 83
2019-11-16 06:00:00 14.5 7 Oeste 32 Nordeste 0.2 -- -- 90
2019-11-16 05:00:00 14.5 6 Norte 22 Norte 0.6 -- -- 89
2019-11-16 04:00:00 14.3 8 Oeste 27 Nordeste 0.4 -- -- 92
2019-11-16 03:00:00 14.8 13 Este 31 Nordeste 0 -- -- 91
2019-11-16 02:00:00 15.1 18 Nordeste 32 Norte 0 -- -- 85
2019-11-16 01:00:00 15.1 4 Norte 15 Norte 0 -- -- 83
2019-11-16 00:00:00 15 3 Norte 12 Noroeste 0 -- -- 86